createdAt,value
2019-05-02T00:01:55.956Z,15.60
2019-05-02T00:04:23.798Z,15.70
2019-05-02T00:07:05.398Z,15.70
2019-05-02T00:09:34.880Z,15.60
2019-05-02T00:12:02.656Z,15.60
2019-05-02T00:14:30.444Z,15.50
2019-05-02T00:16:57.593Z,15.50
2019-05-02T00:19:24.735Z,15.60
2019-05-02T00:21:51.406Z,15.50
2019-05-02T00:24:18.651Z,15.50
2019-05-02T00:26:45.448Z,15.30
2019-05-02T00:29:12.326Z,15.40
2019-05-02T00:31:41.864Z,15.40
2019-05-02T00:34:10.800Z,15.40
2019-05-02T00:36:37.616Z,15.40
2019-05-02T00:39:09.503Z,15.40
2019-05-02T00:41:38.468Z,15.30
2019-05-02T00:44:06.019Z,15.30
2019-05-02T00:46:34.994Z,15.20
2019-05-02T00:49:02.014Z,15.20
2019-05-02T00:51:28.954Z,15.20
2019-05-02T00:53:56.088Z,15.20
2019-05-02T00:56:23.054Z,15.20
2019-05-02T00:58:49.935Z,15.10
2019-05-02T01:01:16.960Z,15.20
2019-05-02T01:03:52.137Z,15.10
2019-05-02T01:06:17.157Z,15.20
2019-05-02T01:08:44.053Z,15.10
2019-05-02T01:11:10.759Z,15.10
2019-05-02T01:13:37.924Z,15.10
2019-05-02T01:16:04.876Z,15.00
2019-05-02T01:18:31.673Z,15.00
2019-05-02T01:21:02.769Z,14.90
2019-05-02T01:23:28.022Z,14.90
2019-05-02T01:25:56.214Z,14.90
2019-05-02T01:28:38.463Z,14.90
2019-05-02T01:31:13.095Z,15.00
2019-05-02T01:33:41.817Z,14.80
2019-05-02T01:36:26.255Z,14.80
2019-05-02T01:38:53.083Z,14.80
2019-05-02T01:41:23.948Z,14.80
2019-05-02T01:43:49.162Z,14.80
2019-05-02T01:46:17.087Z,14.70
2019-05-02T01:48:45.926Z,14.70
2019-05-02T01:51:13.020Z,14.60
2019-05-02T01:53:39.978Z,14.60
2019-05-02T01:56:06.732Z,14.60
2019-05-02T01:58:33.524Z,14.50
2019-05-02T02:01:00.505Z,14.40
2019-05-02T02:03:27.236Z,14.40
2019-05-02T02:05:54.209Z,14.40
2019-05-02T02:08:21.057Z,14.40
2019-05-02T02:10:50.470Z,14.40
2019-05-02T02:13:16.892Z,14.40
2019-05-02T02:15:43.680Z,14.40
2019-05-02T02:18:11.754Z,14.30
2019-05-02T02:20:52.688Z,14.30
2019-05-02T02:23:38.351Z,14.30
2019-05-02T02:26:12.097Z,14.30
2019-05-02T02:28:38.385Z,14.30
2019-05-02T02:31:07.800Z,14.30
2019-05-02T02:33:34.049Z,14.30
2019-05-02T02:36:01.535Z,14.30
2019-05-02T02:38:33.794Z,14.30
2019-05-02T02:40:57.182Z,14.30
2019-05-02T02:43:34.055Z,14.30
2019-05-02T02:46:02.085Z,14.30
2019-05-02T02:48:33.644Z,14.30
2019-05-02T02:50:58.114Z,14.30
2019-05-02T02:53:31.083Z,14.20
2019-05-02T02:56:05.641Z,14.10
2019-05-02T02:58:44.045Z,14.00
2019-05-02T03:01:02.318Z,13.80
2019-05-02T03:03:30.592Z,13.70
2019-05-02T03:05:58.861Z,13.70
2019-05-02T03:08:27.153Z,13.60
2019-05-02T03:10:54.034Z,13.40
2019-05-02T03:13:24.343Z,13.40
2019-05-02T03:16:00.478Z,13.30
2019-05-02T03:18:26.937Z,13.20
2019-05-02T03:20:52.538Z,13.10
2019-05-02T03:23:22.157Z,13.00
2019-05-02T03:25:51.207Z,13.00
2019-05-02T03:28:20.491Z,12.80
2019-05-02T03:30:46.377Z,12.80
2019-05-02T03:33:13.230Z,12.80
2019-05-02T03:35:44.111Z,12.80
2019-05-02T03:38:09.199Z,12.80
2019-05-02T03:40:38.876Z,12.60
2019-05-02T03:43:05.184Z,12.50
2019-05-02T03:45:39.946Z,12.50
2019-05-02T03:48:01.252Z,13.00
2019-05-02T03:50:32.561Z,12.50
2019-05-02T03:52:57.285Z,12.40
2019-05-02T03:55:31.424Z,12.40
2019-05-02T03:57:52.886Z,12.40
2019-05-02T04:00:23.884Z,12.40
2019-05-02T04:02:59.046Z,12.50
2019-05-02T04:05:17.758Z,12.40
2019-05-02T04:07:45.475Z,12.40
2019-05-02T04:10:19.643Z,12.40
2019-05-02T04:12:46.352Z,12.20
2019-05-02T04:15:13.686Z,12.20
2019-05-02T04:17:41.776Z,12.20
2019-05-02T04:20:10.175Z,12.20
2019-05-02T04:22:42.869Z,12.20
2019-05-02T04:25:06.657Z,12.20
2019-05-02T04:27:35.909Z,12.20
2019-05-02T04:30:11.400Z,12.10
2019-05-02T04:32:34.806Z,12.10
2019-05-02T04:35:01.842Z,12.10
2019-05-02T04:37:34.394Z,12.10
2019-05-02T04:39:59.050Z,12.00
2019-05-02T04:42:29.105Z,11.90
2019-05-02T04:45:14.129Z,11.90
2019-05-02T04:47:23.607Z,11.80
2019-05-02T04:49:52.064Z,11.80
2019-05-02T04:52:21.181Z,11.80
2019-05-02T04:54:48.842Z,11.80
2019-05-02T04:57:18.435Z,11.90
2019-05-02T04:59:44.330Z,11.90
2019-05-02T05:02:11.326Z,11.90
2019-05-02T05:04:42.356Z,11.70
2019-05-02T05:07:09.387Z,11.70
2019-05-02T05:09:35.638Z,11.80
2019-05-02T05:12:02.862Z,11.70
2019-05-02T05:14:31.389Z,11.80
2019-05-02T05:16:58.808Z,11.80
2019-05-02T05:19:28.710Z,11.80
2019-05-02T05:21:58.769Z,11.90
2019-05-02T05:24:32.722Z,11.90
2019-05-02T05:27:00.117Z,12.00
2019-05-02T05:29:29.075Z,12.10
2019-05-02T05:32:05.098Z,12.20
2019-05-02T05:34:28.472Z,12.20
2019-05-02T05:36:53.358Z,12.10
2019-05-02T05:39:20.133Z,12.20
2019-05-02T05:41:50.575Z,12.20
2019-05-02T05:44:17.900Z,12.20
2019-05-02T05:46:46.899Z,12.30
2019-05-02T05:49:20.277Z,12.30
2019-05-02T05:51:42.271Z,12.30
2019-05-02T05:54:09.057Z,12.30
2019-05-02T05:56:42.008Z,12.40
2019-05-02T05:59:07.620Z,12.40
2019-05-02T06:01:35.855Z,12.40
2019-05-02T06:04:03.730Z,12.40
2019-05-02T06:06:30.579Z,12.40
2019-05-02T06:08:57.310Z,12.50
2019-05-02T06:11:24.125Z,12.50
2019-05-02T06:13:50.841Z,12.50
2019-05-02T06:16:17.531Z,12.50
2019-05-02T06:18:44.326Z,12.60
2019-05-02T06:21:11.116Z,12.60
2019-05-02T06:23:41.349Z,12.70
2019-05-02T06:26:13.026Z,12.70
2019-05-02T06:28:36.481Z,12.70
2019-05-02T06:31:07.445Z,12.70
2019-05-02T06:33:33.159Z,12.70
2019-05-02T06:36:01.465Z,12.80
2019-05-02T06:38:28.555Z,12.70
2019-05-02T06:40:55.538Z,12.70
2019-05-02T06:43:22.379Z,13.20
2019-05-02T06:45:49.204Z,12.70
2019-05-02T06:48:17.610Z,12.70
2019-05-02T06:50:44.565Z,12.70
2019-05-02T06:53:11.375Z,12.80
2019-05-02T06:55:38.748Z,12.90
2019-05-02T06:58:08.196Z,12.90
2019-05-02T07:00:39.932Z,13.00
2019-05-02T07:03:05.054Z,13.00
2019-05-02T07:05:32.471Z,13.10
2019-05-02T07:07:59.191Z,13.20
2019-05-02T07:10:26.699Z,13.20
2019-05-02T07:13:09.786Z,13.40
2019-05-02T07:15:24.488Z,13.40
2019-05-02T07:17:53.249Z,13.40
2019-05-02T07:20:19.989Z,13.50
2019-05-02T07:22:46.774Z,13.60
2019-05-02T07:25:16.297Z,13.70
2019-05-02T07:27:43.111Z,13.80
2019-05-02T07:30:10.605Z,13.90
2019-05-02T07:32:37.452Z,14.00
2019-05-02T07:35:06.226Z,14.10
2019-05-02T07:37:33.116Z,14.10
2019-05-02T07:39:59.931Z,14.10
2019-05-02T07:42:26.719Z,14.20
2019-05-02T07:44:53.931Z,14.20
2019-05-02T07:47:20.629Z,14.40
2019-05-02T07:49:47.455Z,14.40
2019-05-02T07:52:14.234Z,14.50
2019-05-02T07:54:41.028Z,14.60
2019-05-02T07:57:07.822Z,14.60
2019-05-02T07:59:34.496Z,14.70
2019-05-02T08:02:01.314Z,14.70
2019-05-02T08:04:28.096Z,14.80
2019-05-02T08:06:54.987Z,14.80
2019-05-02T08:09:22.508Z,14.90
2019-05-02T08:11:49.294Z,14.90
2019-05-02T08:14:16.070Z,15.00
2019-05-02T08:16:43.033Z,14.90
2019-05-02T08:19:09.808Z,15.00
2019-05-02T08:21:36.576Z,15.10
2019-05-02T08:24:04.142Z,15.10
2019-05-02T08:26:47.898Z,15.10
2019-05-02T08:29:15.521Z,15.20
2019-05-02T08:31:42.188Z,15.20
2019-05-02T08:34:14.752Z,15.20
2019-05-02T08:36:37.732Z,15.30
2019-05-02T08:39:05.998Z,15.30
2019-05-02T08:41:32.724Z,15.30
2019-05-02T08:43:59.537Z,15.40
2019-05-02T08:46:26.123Z,15.40
2019-05-02T08:48:52.947Z,15.40
2019-05-02T08:51:19.819Z,15.40
2019-05-02T08:53:46.602Z,15.40
2019-05-02T08:56:16.486Z,15.40
2019-05-02T08:58:44.900Z,15.50
2019-05-02T09:01:13.790Z,15.50
2019-05-02T09:03:54.686Z,15.60
2019-05-02T09:06:08.609Z,15.60
2019-05-02T09:08:35.300Z,15.60
2019-05-02T09:11:02.092Z,15.70
2019-05-02T09:13:29.552Z,15.70
2019-05-02T09:15:56.627Z,15.70
2019-05-02T09:18:30.042Z,15.80
2019-05-02T09:20:56.350Z,15.80
2019-05-02T09:23:22.764Z,15.90
2019-05-02T09:25:51.760Z,15.90
2019-05-02T09:28:22.620Z,15.90
2019-05-02T09:30:47.091Z,16.00
2019-05-02T09:33:13.928Z,16.00
2019-05-02T09:35:42.216Z,16.10
2019-05-02T09:38:09.562Z,16.10
2019-05-02T09:40:36.344Z,16.10
2019-05-02T09:43:04.820Z,16.20
2019-05-02T09:45:37.451Z,16.20
2019-05-02T09:48:07.172Z,16.30
2019-05-02T09:50:34.393Z,16.30
2019-05-02T09:53:01.888Z,16.40
2019-05-02T09:55:28.956Z,16.40
2019-05-02T09:57:55.682Z,16.50
2019-05-02T10:00:37.188Z,16.50
2019-05-02T10:03:05.393Z,16.60
2019-05-02T10:05:32.438Z,16.70
2019-05-02T10:08:03.253Z,16.70
2019-05-02T10:10:29.521Z,16.80
2019-05-02T10:12:56.416Z,16.90
2019-05-02T10:15:23.246Z,16.90
2019-05-02T10:17:51.999Z,16.90
2019-05-02T10:20:23.493Z,17.00
2019-05-02T10:22:52.835Z,17.10
2019-05-02T10:25:19.802Z,17.10
2019-05-02T10:27:47.615Z,16.40
2019-05-02T10:30:16.325Z,17.30
2019-05-02T10:32:47.205Z,17.40
2019-05-02T10:35:13.947Z,17.40
2019-05-02T10:37:42.926Z,17.50
2019-05-02T10:40:15.460Z,17.60
2019-05-02T10:42:41.857Z,17.70
2019-05-02T10:45:14.266Z,17.80
2019-05-02T10:47:39.748Z,17.90
2019-05-02T10:50:11.756Z,17.90
2019-05-02T10:52:38.515Z,17.90
2019-05-02T10:55:07.107Z,17.90
2019-05-02T10:57:34.010Z,18.00
2019-05-02T11:00:03.084Z,18.10
2019-05-02T11:02:35.760Z,18.10
2019-05-02T11:05:07.866Z,18.10
2019-05-02T11:07:34.863Z,18.10
2019-05-02T11:10:06.669Z,18.10
2019-05-02T11:12:41.922Z,18.10
2019-05-02T11:15:14.280Z,18.10
2019-05-02T11:17:42.890Z,18.10
2019-05-02T11:20:12.371Z,18.30
2019-05-02T11:22:39.391Z,18.30
2019-05-02T11:25:27.707Z,18.40
2019-05-02T11:27:57.428Z,18.50
2019-05-02T11:30:26.532Z,18.60
2019-05-02T11:32:52.166Z,18.70
2019-05-02T11:35:19.339Z,18.80
2019-05-02T11:37:46.290Z,19.00
2019-05-02T11:40:13.371Z,19.10
2019-05-02T11:42:41.632Z,19.20
2019-05-02T11:45:09.638Z,19.30
2019-05-02T11:47:36.424Z,19.50
2019-05-02T11:50:04.557Z,19.50
2019-05-02T11:52:35.671Z,19.70
2019-05-02T11:55:02.077Z,19.80
2019-05-02T11:57:32.538Z,20.00
2019-05-02T11:59:59.510Z,20.10
2019-05-02T12:02:35.356Z,20.20
2019-05-02T12:05:12.790Z,20.40
2019-05-02T12:07:41.708Z,20.50
2019-05-02T12:10:09.704Z,20.50
2019-05-02T12:12:36.481Z,20.60
2019-05-02T12:15:05.198Z,20.80
2019-05-02T12:17:32.645Z,20.80
2019-05-02T12:20:01.463Z,20.90
2019-05-02T12:22:28.436Z,21.00
2019-05-02T12:24:55.220Z,21.00
2019-05-02T12:27:22.131Z,21.00
2019-05-02T12:29:57.525Z,20.90
2019-05-02T12:32:18.320Z,21.00
2019-05-02T12:34:45.298Z,21.10
2019-05-02T12:37:12.607Z,21.20
2019-05-02T12:39:39.627Z,21.10
2019-05-02T12:42:06.710Z,21.00
2019-05-02T12:44:34.177Z,21.00
2019-05-02T12:47:02.647Z,20.90
2019-05-02T12:49:32.346Z,20.80
2019-05-02T12:51:58.832Z,20.80
2019-05-02T12:54:25.819Z,20.70
2019-05-02T12:56:52.983Z,20.70
2019-05-02T12:59:20.050Z,20.70
2019-05-02T13:01:46.840Z,20.70
2019-05-02T13:04:13.983Z,20.70
2019-05-02T13:06:42.139Z,20.70
2019-05-02T13:09:12.714Z,20.80
2019-05-02T13:12:00.366Z,21.00
2019-05-02T13:14:29.171Z,21.10
2019-05-02T13:17:01.607Z,21.30
2019-05-02T13:19:37.251Z,21.50
2019-05-02T13:21:59.493Z,21.60
2019-05-02T13:24:33.832Z,21.80
2019-05-02T13:27:01.806Z,21.90
2019-05-02T13:29:29.372Z,21.90
2019-05-02T13:32:02.207Z,21.90
2019-05-02T13:34:36.794Z,21.80
2019-05-02T13:37:05.240Z,21.80
2019-05-02T13:39:32.672Z,21.80
2019-05-02T13:42:01.710Z,21.80
2019-05-02T13:44:41.674Z,21.80
2019-05-02T13:47:12.171Z,21.90
2019-05-02T13:49:52.874Z,22.00
2019-05-02T13:52:08.409Z,22.10
2019-05-02T13:54:36.031Z,22.20
2019-05-02T13:57:04.118Z,22.30
2019-05-02T13:59:31.210Z,22.40
2019-05-02T14:01:59.925Z,22.50
2019-05-02T14:04:26.817Z,22.60
2019-05-02T14:06:53.881Z,22.70
2019-05-02T14:09:40.854Z,22.80
2019-05-02T14:12:11.755Z,22.90
2019-05-02T14:14:39.134Z,23.00
2019-05-02T14:17:06.143Z,23.00
2019-05-02T14:19:33.275Z,23.10
2019-05-02T14:22:00.248Z,23.00
2019-05-02T14:24:27.040Z,23.00
2019-05-02T14:26:54.446Z,23.00
2019-05-02T14:29:21.704Z,22.90
2019-05-02T14:31:49.085Z,22.90
2019-05-02T14:34:34.172Z,22.80
2019-05-02T14:37:02.129Z,22.80
2019-05-02T14:39:29.562Z,22.70
2019-05-02T14:42:22.178Z,22.70
2019-05-02T14:45:04.270Z,22.60
2019-05-02T14:47:19.512Z,22.80
2019-05-02T14:49:45.258Z,23.00
2019-05-02T14:52:12.716Z,23.10
2019-05-02T14:54:43.950Z,23.20
2019-05-02T14:57:11.904Z,23.10
2019-05-02T14:59:39.418Z,23.20
2019-05-02T15:02:08.906Z,23.20
2019-05-02T15:04:38.350Z,23.20
2019-05-02T15:07:06.356Z,23.10
2019-05-02T15:09:36.136Z,23.10
2019-05-02T15:12:03.374Z,23.00
2019-05-02T15:14:33.403Z,23.00
2019-05-02T15:17:02.578Z,23.10
2019-05-02T15:19:29.941Z,23.10
2019-05-02T15:21:56.745Z,23.10
2019-05-02T15:24:27.645Z,23.00
2019-05-02T15:26:52.652Z,23.00
2019-05-02T15:29:24.382Z,22.90
2019-05-02T15:31:57.883Z,22.70
2019-05-02T15:34:25.467Z,22.50
2019-05-02T15:36:52.713Z,22.30
2019-05-02T15:41:48.821Z,22.10
2019-05-02T15:44:18.870Z,22.20
2019-05-02T15:46:44.643Z,22.30
2019-05-02T15:49:12.293Z,22.40
2019-05-02T15:51:43.638Z,22.60
2019-05-02T15:54:12.379Z,22.70
2019-05-02T15:57:00.043Z,22.90
2019-05-02T15:59:32.666Z,23.00
2019-05-02T16:02:12.905Z,23.20
2019-05-02T16:04:41.697Z,23.30
2019-05-02T16:07:09.109Z,23.50
2019-05-02T16:09:36.009Z,23.60
2019-05-02T16:12:04.944Z,23.80
2019-05-02T16:14:35.863Z,23.90
2019-05-02T16:17:03.126Z,24.00
2019-05-02T16:19:32.921Z,24.20
2019-05-02T16:22:08.006Z,24.50
2019-05-02T16:24:33.585Z,24.60
2019-05-02T16:27:01.618Z,24.60
2019-05-02T16:29:29.211Z,24.60
2019-05-02T16:31:59.786Z,24.70
2019-05-02T16:34:27.416Z,24.80
2019-05-02T16:36:57.265Z,25.00
2019-05-02T16:39:24.448Z,25.20
2019-05-02T16:41:52.933Z,25.30
2019-05-02T16:44:19.927Z,25.60
2019-05-02T16:46:47.094Z,25.50
2019-05-02T16:49:18.441Z,25.30
2019-05-02T16:51:43.132Z,25.20
2019-05-02T16:54:10.317Z,25.10
2019-05-02T16:56:42.310Z,25.10
2019-05-02T16:59:05.875Z,25.10
2019-05-02T17:01:32.938Z,25.10
2019-05-02T17:04:03.199Z,25.10
2019-05-02T17:06:30.205Z,25.10
2019-05-02T17:08:59.211Z,25.10
2019-05-02T17:11:36.864Z,25.20
2019-05-02T17:14:06.963Z,25.20
2019-05-02T17:16:32.267Z,25.10
2019-05-02T17:18:59.437Z,24.90
2019-05-02T17:21:26.974Z,24.60
2019-05-02T17:23:54.948Z,24.50
2019-05-02T17:26:22.829Z,24.30
2019-05-02T17:28:49.723Z,24.10
2019-05-02T17:31:19.330Z,23.90
2019-05-02T17:33:51.076Z,23.80
2019-05-02T17:36:15.680Z,23.70
2019-05-02T17:38:42.488Z,23.90
2019-05-02T17:41:09.206Z,24.00
2019-05-02T18:35:37.300Z,22.70
2019-05-02T18:38:02.640Z,22.60
2019-05-02T18:40:32.060Z,22.50
2019-05-02T18:43:03.536Z,22.40
2019-05-02T18:45:28.855Z,22.20
2019-05-02T18:48:02.459Z,22.10
2019-05-02T18:50:36.893Z,22.00
2019-05-02T18:53:05.998Z,21.80
2019-05-02T18:55:33.506Z,21.60
2019-05-02T18:58:02.438Z,21.40
2019-05-02T19:00:37.568Z,21.30
2019-05-02T19:02:58.659Z,21.20
2019-05-02T19:05:26.558Z,21.00
2019-05-02T19:07:56.402Z,20.90
2019-05-02T19:10:23.240Z,20.80
2019-05-02T19:12:50.340Z,20.70
2019-05-02T19:15:17.485Z,20.60
2019-05-02T19:17:44.456Z,20.50
2019-05-02T19:20:28.639Z,20.40
2019-05-02T19:22:56.998Z,20.40
2019-05-02T19:25:24.512Z,20.30
2019-05-02T19:27:52.157Z,20.20
2019-05-02T19:30:38.613Z,20.10
2019-05-02T19:33:07.841Z,20.10
2019-05-02T19:35:37.602Z,20.10
2019-05-02T19:38:04.099Z,20.00
2019-05-02T19:40:31.838Z,20.00
2019-05-02T19:43:05.985Z,20.00
2019-05-02T19:45:27.812Z,19.90
2019-05-02T19:47:57.680Z,19.80
2019-05-02T19:50:38.965Z,19.80
2019-05-02T19:53:04.178Z,19.80
2019-05-02T19:55:29.656Z,19.80
2019-05-02T19:57:56.695Z,19.70
2019-05-02T20:00:24.463Z,19.50
2019-05-02T20:02:52.241Z,19.40
2019-05-02T20:05:24.141Z,19.30
2019-05-02T20:07:48.042Z,19.20
2019-05-02T20:10:17.877Z,19.00
2019-05-02T20:12:48.404Z,19.00
2019-05-02T20:15:17.026Z,18.90
2019-05-02T20:17:45.463Z,18.90
2019-05-02T20:20:55.359Z,18.80
2019-05-02T20:23:28.313Z,18.70
2019-05-02T20:25:52.190Z,18.50
2019-05-02T20:28:19.285Z,18.50
2019-05-02T20:30:46.349Z,18.50
2019-05-02T20:33:13.132Z,18.30
2019-05-02T20:35:42.116Z,18.30
2019-05-02T20:38:11.201Z,18.20
2019-05-02T20:40:38.465Z,18.20
2019-05-02T20:43:05.862Z,18.10
2019-05-02T20:45:35.032Z,18.00
2019-05-02T20:48:02.161Z,17.90
2019-05-02T20:50:31.848Z,17.70
2019-05-02T20:52:58.774Z,17.60
2019-05-02T20:55:25.677Z,17.50
2019-05-02T20:57:52.931Z,17.60
2019-05-02T21:00:32.193Z,17.50
2019-05-02T21:02:59.383Z,17.50
2019-05-02T21:05:29.572Z,17.50
2019-05-02T21:08:02.294Z,17.50
2019-05-02T21:10:32.330Z,17.40
2019-05-02T21:13:01.949Z,17.40
2019-05-02T21:15:28.897Z,17.40
2019-05-02T21:17:55.716Z,17.30
2019-05-02T21:20:22.417Z,17.40
2019-05-02T21:22:49.440Z,17.50
2019-05-02T21:25:16.259Z,17.50
2019-05-02T21:27:43.074Z,17.50
2019-05-02T21:30:12.368Z,17.60
2019-05-02T21:32:39.249Z,17.70
2019-05-02T21:35:06.871Z,17.80
2019-05-02T21:37:34.095Z,17.80
2019-05-02T21:40:02.637Z,17.80
2019-05-02T21:42:29.373Z,17.70
2019-05-02T21:44:56.270Z,17.70
2019-05-02T21:47:22.945Z,17.70
2019-05-02T21:49:57.359Z,17.80
2019-05-02T21:52:26.076Z,17.80
2019-05-02T21:54:57.346Z,17.80
2019-05-02T21:57:24.140Z,17.90
2019-05-02T21:59:52.655Z,17.70
2019-05-02T22:02:19.654Z,17.70
2019-05-02T22:04:46.461Z,17.70
2019-05-02T22:07:13.741Z,17.60
2019-05-02T22:09:41.641Z,17.60
2019-05-02T22:12:08.952Z,17.40
2019-05-02T22:14:36.093Z,17.40
2019-05-02T22:17:03.284Z,17.30
2019-05-02T22:19:32.168Z,17.30
2019-05-02T22:21:59.009Z,17.30
2019-05-02T22:24:25.810Z,17.20
2019-05-02T22:26:52.768Z,17.20
2019-05-02T22:29:21.741Z,17.10
2019-05-02T22:31:48.618Z,17.00
2019-05-02T22:34:15.403Z,16.90
2019-05-02T22:36:42.507Z,16.80
2019-05-02T22:39:18.687Z,16.70
2019-05-02T22:41:45.462Z,16.60
2019-05-02T22:44:12.534Z,16.60
2019-05-02T22:46:42.881Z,16.50
2019-05-02T22:49:11.913Z,16.50
2019-05-02T22:51:39.819Z,16.50
2019-05-02T22:54:07.340Z,16.40
2019-05-02T22:56:34.424Z,16.30
2019-05-02T22:59:03.260Z,16.30
2019-05-02T23:01:32.245Z,16.20
2019-05-02T23:03:59.665Z,16.30
2019-05-02T23:06:26.550Z,16.30
2019-05-02T23:08:53.424Z,16.40
2019-05-02T23:11:21.873Z,16.40
2019-05-02T23:13:51.663Z,16.50
2019-05-02T23:16:18.215Z,16.50
2019-05-02T23:18:45.261Z,16.60
2019-05-02T23:21:12.673Z,16.60
2019-05-02T23:23:41.758Z,16.50
2019-05-02T23:26:14.859Z,16.50
2019-05-02T23:28:46.077Z,16.40
2019-05-02T23:31:14.050Z,16.20
2019-05-02T23:33:59.337Z,16.00
2019-05-02T23:36:32.451Z,15.90
2019-05-02T23:39:01.835Z,15.90
2019-05-02T23:41:29.252Z,15.80
2019-05-02T23:43:56.450Z,15.70
2019-05-02T23:46:23.400Z,15.80
2019-05-02T23:48:52.534Z,15.60
2019-05-02T23:51:19.247Z,15.30
2019-05-02T23:53:45.999Z,15.10
2019-05-02T23:56:13.270Z,15.00
2019-05-02T23:58:42.519Z,14.90
